createdAt,value
2017-06-02T00:01:02.932Z,1016.34
2017-06-02T00:02:13.200Z,1016.35
2017-06-02T00:03:23.463Z,1016.37
2017-06-02T00:04:33.728Z,1016.33
2017-06-02T00:05:43.363Z,1016.33
2017-06-02T00:06:53.627Z,1016.32
2017-06-02T00:08:03.582Z,1016.31
2017-06-02T00:09:13.849Z,1016.31
2017-06-02T00:10:23.797Z,1016.31
2017-06-02T00:11:33.776Z,1016.31
2017-06-02T00:12:42.789Z,1016.31
2017-06-02T00:13:52.775Z,1016.28
2017-06-02T00:15:02.738Z,1016.28
2017-06-02T00:16:12.374Z,1016.27
2017-06-02T00:17:22.640Z,1016.25
2017-06-02T00:18:32.291Z,1016.2
2017-06-02T00:19:42.551Z,1016.24
2017-06-02T00:20:52.818Z,1016.23
2017-06-02T00:22:02.769Z,1016.22
2017-06-02T00:23:12.715Z,1016.16
2017-06-02T00:24:22.040Z,1016.14
2017-06-02T00:25:31.677Z,1016.12
2017-06-02T00:26:41.626Z,1016.11
2017-06-02T00:27:51.898Z,1016.06
2017-06-02T00:29:02.173Z,1016.05
2017-06-02T00:30:12.122Z,1016.03
2017-06-02T00:31:22.392Z,1016.02
2017-06-02T00:32:32.029Z,1016.04
2017-06-02T00:33:41.976Z,1016.01
2017-06-02T00:34:51.926Z,1016.05
2017-06-02T00:36:01.880Z,1016.02
2017-06-02T00:37:11.530Z,1016.01
2017-06-02T00:38:21.483Z,1016.02
2017-06-02T00:39:31.128Z,1016
2017-06-02T00:40:41.391Z,1015.98
2017-06-02T00:41:51.654Z,1016.02
2017-06-02T00:43:01.290Z,1016.03
2017-06-02T00:44:10.926Z,1016.05
2017-06-02T00:45:20.559Z,1016.03
2017-06-02T00:46:30.825Z,1016.04
2017-06-02T00:47:40.780Z,1016.02
2017-06-02T00:48:50.417Z,1016.07
2017-06-02T00:50:00.680Z,1016.02
2017-06-02T00:51:10.631Z,1016.01
2017-06-02T00:52:20.898Z,1015.98
2017-06-02T00:53:30.846Z,1016.02
2017-06-02T00:54:40.798Z,1016.03
2017-06-02T00:55:50.117Z,1015.99
2017-06-02T00:57:00.066Z,1015.99
2017-06-02T00:58:09.703Z,1016.01
2017-06-02T00:59:19.972Z,1016.02
2017-06-02T01:00:29.921Z,1016
2017-06-02T01:01:39.875Z,1015.99
2017-06-02T01:02:49.828Z,1016
2017-06-02T01:03:59.790Z,1015.98
2017-06-02T01:05:09.421Z,1015.98
2017-06-02T01:06:19.371Z,1015.98
2017-06-02T01:07:29.011Z,1015.99
2017-06-02T01:08:39.276Z,1015.98
2017-06-02T01:09:49.544Z,1015.96
2017-06-02T01:10:59.196Z,1015.97
2017-06-02T01:12:09.148Z,1015.98
2017-06-02T01:13:19.102Z,1015.92
2017-06-02T01:14:28.734Z,1015.91
2017-06-02T01:15:38.366Z,1015.91
2017-06-02T01:16:48.315Z,1015.91
2017-06-02T01:17:58.264Z,1015.92
2017-06-02T01:19:08.537Z,1015.92
2017-06-02T01:20:18.489Z,1015.9
2017-06-02T01:21:28.137Z,1015.84
2017-06-02T01:22:38.099Z,1015.85
2017-06-02T01:23:48.053Z,1015.82
2017-06-02T01:24:58.318Z,1015.82
2017-06-02T01:26:08.274Z,1015.82
2017-06-02T01:27:17.930Z,1015.81
2017-06-02T01:28:27.253Z,1015.78
2017-06-02T01:29:37.515Z,1015.82
2017-06-02T01:30:47.772Z,1015.82
2017-06-02T01:31:57.723Z,1015.8
2017-06-02T01:33:08.000Z,1015.84
2017-06-02T01:34:17.997Z,1015.86
2017-06-02T01:35:27.948Z,1015.83
2017-06-02T01:36:37.930Z,1015.85
2017-06-02T01:37:48.199Z,1015.85
2017-06-02T01:38:58.147Z,1015.86
2017-06-02T01:40:08.091Z,1015.85
2017-06-02T01:41:17.727Z,1015.86
2017-06-02T01:42:27.689Z,1015.82
2017-06-02T01:43:37.020Z,1015.85
2017-06-02T01:44:47.287Z,1015.86
2017-06-02T01:45:56.929Z,1015.83
2017-06-02T01:47:06.567Z,1015.83
2017-06-02T01:48:16.860Z,1015.84
2017-06-02T01:49:27.120Z,1015.84
2017-06-02T01:50:36.754Z,1015.87
2017-06-02T01:51:46.386Z,1015.85
2017-06-02T01:52:56.036Z,1015.86
2017-06-02T01:54:05.674Z,1015.82
2017-06-02T01:55:15.952Z,1015.82
2017-06-02T01:56:26.217Z,1015.83
2017-06-02T01:57:35.860Z,1015.79
2017-06-02T01:58:46.127Z,1015.79
2017-06-02T01:59:56.388Z,1015.79
2017-06-02T02:01:06.021Z,1015.78
2017-06-02T02:02:16.289Z,1015.76
2017-06-02T02:03:25.609Z,1015.76
2017-06-02T02:04:35.873Z,1015.75
2017-06-02T02:05:46.142Z,1015.73
2017-06-02T02:06:55.778Z,1015.73
2017-06-02T02:08:05.738Z,1015.7
2017-06-02T02:09:15.684Z,1015.72
2017-06-02T02:10:25.946Z,1015.74
2017-06-02T02:11:36.208Z,1015.7
2017-06-02T02:12:46.476Z,1015.66
2017-06-02T02:13:56.429Z,1015.67
2017-06-02T02:15:06.708Z,1015.67
2017-06-02T02:16:16.657Z,1015.63
2017-06-02T02:17:26.611Z,1015.67
2017-06-02T02:18:36.880Z,1015.66
2017-06-02T02:19:46.832Z,1015.66
2017-06-02T02:20:56.780Z,1015.69
2017-06-02T02:22:07.043Z,1015.64
2017-06-02T02:23:16.675Z,1015.71
2017-06-02T02:24:26.305Z,1015.71
2017-06-02T02:25:35.946Z,1015.68
2017-06-02T02:26:45.899Z,1015.7
2017-06-02T02:27:55.852Z,1015.72
2017-06-02T02:29:06.130Z,1015.67
2017-06-02T02:30:16.404Z,1015.68
2017-06-02T02:31:26.039Z,1015.68
2017-06-02T02:32:35.361Z,1015.66
2017-06-02T02:33:45.625Z,1015.67
2017-06-02T02:34:55.266Z,1015.67
2017-06-02T02:36:04.903Z,1015.63
2017-06-02T02:37:15.174Z,1015.63
2017-06-02T02:38:25.123Z,1015.64
2017-06-02T02:39:35.080Z,1015.63
2017-06-02T02:40:45.349Z,1015.64
2017-06-02T02:41:54.989Z,1015.64
2017-06-02T02:43:04.628Z,1015.6
2017-06-02T02:44:13.954Z,1015.59
2017-06-02T02:45:24.222Z,1015.63
2017-06-02T02:46:34.170Z,1015.59
2017-06-02T02:47:44.442Z,1015.58
2017-06-02T02:48:54.708Z,1015.6
2017-06-02T02:50:04.970Z,1015.6
2017-06-02T02:51:14.598Z,1015.56
2017-06-02T02:52:24.549Z,1015.56
2017-06-02T02:53:34.492Z,1015.56
2017-06-02T02:54:44.505Z,1015.54
2017-06-02T02:55:54.779Z,1015.53
2017-06-02T02:57:04.729Z,1015.53
2017-06-02T02:58:14.995Z,1015.51
2017-06-02T02:59:24.950Z,1015.51
2017-06-02T03:00:34.901Z,1015.53
2017-06-02T03:01:45.171Z,1015.54
2017-06-02T03:02:54.800Z,1015.55
2017-06-02T03:04:04.751Z,1015.54
2017-06-02T03:05:14.069Z,1015.59
2017-06-02T03:06:24.330Z,1015.54
2017-06-02T03:07:34.591Z,1015.55
2017-06-02T03:08:44.538Z,1015.54
2017-06-02T03:09:54.808Z,1015.54
2017-06-02T03:11:04.761Z,1015.53
2017-06-02T03:12:14.401Z,1015.55
2017-06-02T03:13:24.038Z,1015.54
2017-06-02T03:14:33.362Z,1015.56
2017-06-02T03:15:43.310Z,1015.55
2017-06-02T03:16:53.569Z,1015.56
2017-06-02T03:18:03.524Z,1015.52
2017-06-02T03:19:13.485Z,1015.59
2017-06-02T03:20:23.432Z,1015.58
2017-06-02T03:21:33.388Z,1015.55
2017-06-02T03:22:43.347Z,1015.58
2017-06-02T03:23:53.055Z,1015.53
2017-06-02T03:25:03.008Z,1015.53
2017-06-02T03:26:12.647Z,1015.49
2017-06-02T03:27:22.600Z,1015.46
2017-06-02T03:28:32.540Z,1015.47
2017-06-02T03:29:42.808Z,1015.48
2017-06-02T03:30:52.759Z,1015.48
2017-06-02T03:32:02.701Z,1015.49
2017-06-02T03:33:12.652Z,1015.48
2017-06-02T03:34:22.918Z,1015.49
2017-06-02T03:35:32.881Z,1015.53
2017-06-02T03:36:42.836Z,1015.49
2017-06-02T03:37:52.154Z,1015.52
2017-06-02T03:39:01.797Z,1015.51
2017-06-02T03:40:11.441Z,1015.52
2017-06-02T03:41:21.385Z,1015.52
2017-06-02T03:42:31.020Z,1015.56
2017-06-02T03:43:41.293Z,1015.56
2017-06-02T03:44:51.566Z,1015.58
2017-06-02T03:46:01.832Z,1015.59
2017-06-02T03:47:11.815Z,1015.59
2017-06-02T03:48:21.770Z,1015.59
2017-06-02T03:49:31.721Z,1015.58
2017-06-02T03:50:41.981Z,1015.59
2017-06-02T03:51:51.933Z,1015.56
2017-06-02T03:53:02.255Z,1015.54
2017-06-02T03:54:12.516Z,1015.61
2017-06-02T03:55:22.466Z,1015.6
2017-06-02T03:56:32.415Z,1015.58
2017-06-02T03:57:42.681Z,1015.63
2017-06-02T03:58:52.634Z,1015.65
2017-06-02T04:00:02.272Z,1015.64
2017-06-02T04:01:12.225Z,1015.6
2017-06-02T04:02:22.183Z,1015.57
2017-06-02T04:03:31.512Z,1015.6
2017-06-02T04:04:41.775Z,1015.59
2017-06-02T04:05:52.046Z,1015.64
2017-06-02T04:07:02.001Z,1015.63
2017-06-02T04:08:12.267Z,1015.63
2017-06-02T04:09:22.214Z,1015.61
2017-06-02T04:10:32.173Z,1015.6
2017-06-02T04:11:42.131Z,1015.6
2017-06-02T04:12:51.771Z,1015.58
2017-06-02T04:14:01.727Z,1015.62
2017-06-02T04:15:11.999Z,1015.63
2017-06-02T04:16:21.946Z,1015.63
2017-06-02T04:17:31.580Z,1015.63
2017-06-02T04:18:41.842Z,1015.64
2017-06-02T04:19:51.790Z,1015.63
2017-06-02T04:21:02.087Z,1015.68
2017-06-02T04:22:11.722Z,1015.65
2017-06-02T04:23:21.362Z,1015.65
2017-06-02T04:24:30.682Z,1015.69
2017-06-02T04:25:40.646Z,1015.61
2017-06-02T04:26:50.296Z,1015.63
2017-06-02T04:28:00.254Z,1015.62
2017-06-02T04:29:10.203Z,1015.62
2017-06-02T04:30:20.150Z,1015.6
2017-06-02T04:31:30.105Z,1015.61
2017-06-02T04:32:40.053Z,1015.64
2017-06-02T04:33:50.001Z,1015.59
2017-06-02T04:35:00.272Z,1015.62
2017-06-02T04:36:10.282Z,1015.6
2017-06-02T04:37:20.234Z,1015.62
2017-06-02T04:38:30.503Z,1015.66
2017-06-02T04:39:40.450Z,1015.7
2017-06-02T04:40:50.712Z,1015.72
2017-06-02T04:42:00.665Z,1015.74
2017-06-02T04:43:10.613Z,1015.7
2017-06-02T04:44:20.251Z,1015.73
2017-06-02T04:45:29.571Z,1015.68
2017-06-02T04:46:39.835Z,1015.71
2017-06-02T04:47:49.789Z,1015.78
2017-06-02T04:48:59.110Z,1015.75
2017-06-02T04:50:08.749Z,1015.75
2017-06-02T04:51:18.701Z,1015.74
2017-06-02T04:52:28.653Z,1015.75
2017-06-02T04:53:38.293Z,1015.82
2017-06-02T04:54:47.929Z,1015.79
2017-06-02T04:55:57.574Z,1015.79
2017-06-02T04:57:06.897Z,1015.81
2017-06-02T04:58:16.530Z,1015.81
2017-06-02T04:59:26.475Z,1015.84
2017-06-02T05:00:36.109Z,1015.83
2017-06-02T05:01:45.748Z,1015.85
2017-06-02T05:02:55.697Z,1015.86
2017-06-02T05:04:05.656Z,1015.8
2017-06-02T05:05:14.971Z,1015.8
2017-06-02T05:06:25.229Z,1015.83
2017-06-02T05:07:34.867Z,1015.82
2017-06-02T05:08:44.816Z,1015.82
2017-06-02T05:09:55.085Z,1015.86
2017-06-02T05:11:04.732Z,1015.86
2017-06-02T05:12:14.683Z,1015.86
2017-06-02T05:13:24.965Z,1015.83
2017-06-02T05:14:34.608Z,1015.81
2017-06-02T05:15:44.868Z,1015.78
2017-06-02T05:16:54.840Z,1015.79
2017-06-02T05:18:04.790Z,1015.8
2017-06-02T05:19:13.798Z,1015.81
2017-06-02T05:20:23.441Z,1015.79
2017-06-02T05:21:33.395Z,1015.77
2017-06-02T05:22:43.664Z,1015.76
2017-06-02T05:23:53.315Z,1015.72
2017-06-02T05:25:03.577Z,1015.74
2017-06-02T05:26:13.227Z,1015.75
2017-06-02T05:27:23.493Z,1015.72
2017-06-02T05:28:33.441Z,1015.7
2017-06-02T05:29:43.407Z,1015.73
2017-06-02T05:30:53.044Z,1015.74
2017-06-02T05:32:02.998Z,1015.72
2017-06-02T05:33:12.948Z,1015.7
2017-06-02T05:34:23.219Z,1015.66
2017-06-02T05:35:33.171Z,1015.7
2017-06-02T05:36:43.437Z,1015.67
2017-06-02T05:37:53.074Z,1015.73
2017-06-02T05:39:03.344Z,1015.71
2017-06-02T05:40:13.292Z,1015.72
2017-06-02T05:41:22.923Z,1015.73
2017-06-02T05:42:32.899Z,1015.73
2017-06-02T05:43:42.856Z,1015.7
2017-06-02T05:44:53.116Z,1015.69
2017-06-02T05:46:03.071Z,1015.68
2017-06-02T05:47:12.734Z,1015.71
2017-06-02T05:48:22.710Z,1015.69
2017-06-02T05:49:33.007Z,1015.69
2017-06-02T05:50:43.302Z,1015.69
2017-06-02T05:51:53.254Z,1015.71
2017-06-02T05:53:02.894Z,1015.7
2017-06-02T05:54:13.160Z,1015.7
2017-06-02T05:55:23.112Z,1015.68
2017-06-02T05:56:32.747Z,1015.71
2017-06-02T05:57:42.701Z,1015.72
2017-06-02T05:58:52.661Z,1015.67
2017-06-02T06:00:02.608Z,1015.7
2017-06-02T06:01:12.565Z,1015.65
2017-06-02T06:02:22.523Z,1015.71
2017-06-02T06:03:31.848Z,1015.73
2017-06-02T06:04:41.803Z,1015.73
2017-06-02T06:05:51.758Z,1015.74
2017-06-02T06:07:01.086Z,1015.75
2017-06-02T06:08:10.717Z,1015.76
2017-06-02T06:09:20.972Z,1015.73
2017-06-02T06:10:30.927Z,1015.73
2017-06-02T06:11:40.561Z,1015.75
2017-06-02T06:12:50.196Z,1015.74
2017-06-02T06:14:00.483Z,1015.71
2017-06-02T06:15:10.125Z,1015.72
2017-06-02T06:16:20.389Z,1015.72
2017-06-02T06:17:30.345Z,1015.78
2017-06-02T06:18:40.299Z,1015.75
2017-06-02T06:19:50.252Z,1015.74
2017-06-02T06:21:00.519Z,1015.79
2017-06-02T06:22:09.843Z,1015.77
2017-06-02T06:23:20.115Z,1015.8
2017-06-02T06:24:30.384Z,1015.81
2017-06-02T06:25:40.015Z,1015.8
2017-06-02T06:26:49.667Z,1015.77
2017-06-02T06:27:59.313Z,1015.79
2017-06-02T06:29:09.585Z,1015.81
2017-06-02T06:30:19.539Z,1015.77
2017-06-02T06:31:28.546Z,1015.76
2017-06-02T06:32:38.500Z,1015.77
2017-06-02T06:33:47.512Z,1015.76
2017-06-02T06:34:57.461Z,1015.77
2017-06-02T06:36:07.732Z,1015.75
2017-06-02T06:37:17.690Z,1015.75
2017-06-02T06:38:27.637Z,1015.76
2017-06-02T06:39:36.959Z,1015.75
2017-06-02T06:40:46.908Z,1015.74
2017-06-02T06:41:56.548Z,1015.71
2017-06-02T06:43:06.811Z,1015.76
2017-06-02T06:44:16.448Z,1015.74
2017-06-02T06:45:26.715Z,1015.72
2017-06-02T06:46:36.351Z,1015.71
2017-06-02T06:47:46.300Z,1015.72
2017-06-02T06:48:56.571Z,1015.72
2017-06-02T06:50:06.525Z,1015.72
2017-06-02T06:51:16.159Z,1015.74
2017-06-02T06:52:25.792Z,1015.73
2017-06-02T06:53:35.425Z,1015.79
2017-06-02T06:54:45.376Z,1015.79
2017-06-02T06:55:55.018Z,1015.79
2017-06-02T06:57:04.966Z,1015.77
2017-06-02T06:58:15.238Z,1015.75
2017-06-02T06:59:25.192Z,1015.75
2017-06-02T07:00:35.159Z,1015.75
2017-06-02T07:01:45.122Z,1015.75
2017-06-02T07:02:55.382Z,1015.76
2017-06-02T07:04:05.648Z,1015.71
2017-06-02T07:05:14.973Z,1015.74
2017-06-02T07:06:24.922Z,1015.74
2017-06-02T07:07:34.563Z,1015.71
2017-06-02T07:08:44.517Z,1015.72
2017-06-02T07:09:54.484Z,1015.7
2017-06-02T07:11:04.431Z,1015.71
2017-06-02T07:12:14.380Z,1015.77
2017-06-02T07:13:24.643Z,1015.78
2017-06-02T07:14:34.280Z,1015.72
2017-06-02T07:15:44.234Z,1015.77
2017-06-02T07:16:53.877Z,1015.73
2017-06-02T07:18:03.200Z,1015.73
2017-06-02T07:19:13.153Z,1015.73
2017-06-02T07:20:23.427Z,1015.74
2017-06-02T07:21:33.700Z,1015.71
2017-06-02T07:22:43.965Z,1015.75
2017-06-02T07:23:54.236Z,1015.71
2017-06-02T07:25:04.191Z,1015.74
2017-06-02T07:26:14.449Z,1015.74
2017-06-02T07:27:24.722Z,1015.74
2017-06-02T07:28:34.678Z,1015.72
2017-06-02T07:29:44.312Z,1015.65
2017-06-02T07:30:54.271Z,1015.67
2017-06-02T07:32:03.910Z,1015.66
2017-06-02T07:33:13.542Z,1015.71
2017-06-02T07:34:23.499Z,1015.68
2017-06-02T07:35:33.448Z,1015.7
2017-06-02T07:36:43.720Z,1015.64
2017-06-02T07:37:53.355Z,1015.66
2017-06-02T07:39:02.679Z,1015.65
2017-06-02T07:40:12.622Z,1015.62
2017-06-02T07:41:21.953Z,1015.66
2017-06-02T07:42:31.591Z,1015.63
2017-06-02T07:43:41.852Z,1015.68
2017-06-02T07:44:52.125Z,1015.7
2017-06-02T07:46:02.077Z,1015.65
2017-06-02T07:47:12.027Z,1015.66
2017-06-02T07:48:21.981Z,1015.61
2017-06-02T07:49:32.248Z,1015.59
2017-06-02T07:50:41.883Z,1015.55
2017-06-02T07:51:51.836Z,1015.54
2017-06-02T07:53:01.787Z,1015.56
2017-06-02T07:54:11.746Z,1015.59
2017-06-02T07:55:21.374Z,1015.55
2017-06-02T07:56:31.333Z,1015.59
2017-06-02T07:57:40.971Z,1015.57
2017-06-02T07:58:50.609Z,1015.56
2017-06-02T08:00:00.256Z,1015.53
2017-06-02T08:01:09.896Z,1015.51
2017-06-02T08:02:19.846Z,1015.51
2017-06-02T08:03:29.794Z,1015.53
2017-06-02T08:04:39.743Z,1015.55
2017-06-02T08:05:50.016Z,1015.5
2017-06-02T08:06:59.971Z,1015.5
2017-06-02T08:08:09.924Z,1015.45
2017-06-02T08:09:20.190Z,1015.43
2017-06-02T08:10:30.150Z,1015.47
2017-06-02T08:11:40.414Z,1015.43
2017-06-02T08:12:50.680Z,1015.4
2017-06-02T08:14:00.317Z,1015.42
2017-06-02T08:15:10.595Z,1015.41
2017-06-02T08:16:20.548Z,1015.46
2017-06-02T08:17:30.816Z,1015.45
2017-06-02T08:18:40.768Z,1015.43
2017-06-02T08:19:50.410Z,1015.46
2017-06-02T08:21:00.379Z,1015.43
2017-06-02T08:22:10.333Z,1015.44
2017-06-02T08:23:20.606Z,1015.44
2017-06-02T08:24:30.555Z,1015.44
2017-06-02T08:25:40.825Z,1015.41
2017-06-02T08:26:50.785Z,1015.46
2017-06-02T08:28:01.066Z,1015.43
2017-06-02T08:29:10.707Z,1015.45
2017-06-02T08:30:20.686Z,1015.44
2017-06-02T08:31:30.663Z,1015.39
2017-06-02T08:32:39.984Z,1015.39
2017-06-02T08:33:50.259Z,1015.39
2017-06-02T08:35:00.219Z,1015.42
2017-06-02T08:36:10.178Z,1015.36
2017-06-02T08:37:19.819Z,1015.33
2017-06-02T08:38:29.775Z,1015.36
2017-06-02T08:39:39.728Z,1015.36
2017-06-02T08:40:49.366Z,1015.33
2017-06-02T08:41:59.324Z,1015.3
2017-06-02T08:43:09.589Z,1015.39
2017-06-02T08:44:19.228Z,1015.34
2017-06-02T08:45:28.865Z,1015.39
2017-06-02T08:46:38.824Z,1015.39
2017-06-02T08:47:49.091Z,1015.37
2017-06-02T08:48:59.366Z,1015.36
2017-06-02T08:50:09.637Z,1015.38
2017-06-02T08:51:19.908Z,1015.38
2017-06-02T08:52:29.551Z,1015.41
2017-06-02T08:53:39.816Z,1015.38
2017-06-02T08:54:49.446Z,1015.4
2017-06-02T08:55:59.395Z,1015.43
2017-06-02T08:57:09.664Z,1015.42
2017-06-02T08:58:19.299Z,1015.38
2017-06-02T08:59:28.932Z,1015.4
2017-06-02T09:00:38.888Z,1015.39
2017-06-02T09:01:49.156Z,1015.41
2017-06-02T09:02:58.796Z,1015.37
2017-06-02T09:04:08.748Z,1015.34
2017-06-02T09:05:18.389Z,1015.33
2017-06-02T09:06:28.658Z,1015.38
2017-06-02T09:07:38.613Z,1015.35
2017-06-02T09:08:48.882Z,1015.35
2017-06-02T09:09:58.831Z,1015.36
2017-06-02T09:11:09.104Z,1015.36
2017-06-02T09:12:19.052Z,1015.37
2017-06-02T09:13:29.003Z,1015.39
2017-06-02T09:14:38.966Z,1015.41
2017-06-02T09:15:48.977Z,1015.42
2017-06-02T09:16:59.248Z,1015.4
2017-06-02T09:18:08.888Z,1015.4
2017-06-02T09:19:18.845Z,1015.33
2017-06-02T09:20:28.799Z,1015.37
2017-06-02T09:21:39.062Z,1015.32
2017-06-02T09:22:49.010Z,1015.32
2017-06-02T09:23:59.273Z,1015.35
2017-06-02T09:25:09.547Z,1015.36
2017-06-02T09:26:19.494Z,1015.38
2017-06-02T09:27:28.820Z,1015.39
2017-06-02T09:28:38.776Z,1015.4
2017-06-02T09:29:47.783Z,1015.41
2017-06-02T09:30:58.057Z,1015.41
2017-06-02T09:32:08.029Z,1015.4
2017-06-02T09:33:18.328Z,1015.4
2017-06-02T09:34:28.282Z,1015.36
2017-06-02T09:35:37.914Z,1015.38
2017-06-02T09:36:48.183Z,1015.37
2017-06-02T09:37:57.504Z,1015.35
2017-06-02T09:39:07.765Z,1015.31
2017-06-02T09:40:16.769Z,1015.39
2017-06-02T09:41:27.045Z,1015.38
2017-06-02T09:42:36.995Z,1015.37
2017-06-02T09:43:47.257Z,1015.34
2017-06-02T09:44:56.949Z,1015.38
2017-06-02T09:46:06.279Z,1015.33
2017-06-02T09:47:16.545Z,1015.34
2017-06-02T09:48:26.810Z,1015.35
2017-06-02T09:49:36.816Z,1015.4
2017-06-02T09:50:47.095Z,1015.41
2017-06-02T09:51:57.362Z,1015.36
2017-06-02T09:53:07.324Z,1015.42
2017-06-02T09:54:17.302Z,1015.39
2017-06-02T09:55:26.938Z,1015.33
2017-06-02T09:56:36.896Z,1015.33
2017-06-02T09:57:47.165Z,1015.4
2017-06-02T09:58:57.438Z,1015.42
2017-06-02T10:00:07.078Z,1015.45
2017-06-02T10:01:17.348Z,1015.36
2017-06-02T10:02:27.306Z,1015.39
2017-06-02T10:03:37.570Z,1015.37
2017-06-02T10:04:47.523Z,1015.37
2017-06-02T10:05:57.783Z,1015.37
2017-06-02T10:07:07.736Z,1015.42
2017-06-02T10:08:18.026Z,1015.4
2017-06-02T10:09:27.660Z,1015.42
2017-06-02T10:10:37.616Z,1015.46
2017-06-02T10:11:47.571Z,1015.42
2017-06-02T10:12:57.525Z,1015.4
2017-06-02T10:14:07.792Z,1015.38
2017-06-02T10:15:18.057Z,1015.41
2017-06-02T10:16:28.011Z,1015.39
2017-06-02T10:17:38.283Z,1015.36
2017-06-02T10:18:48.240Z,1015.32
2017-06-02T10:19:58.506Z,1015.34
2017-06-02T10:21:08.159Z,1015.33
2017-06-02T10:22:18.119Z,1015.28
2017-06-02T10:23:28.074Z,1015.23
2017-06-02T10:24:38.092Z,1015.25
2017-06-02T10:25:48.362Z,1015.25
2017-06-02T10:26:57.063Z,1015.28
2017-06-02T10:28:06.700Z,1015.25
2017-06-02T10:29:16.723Z,1015.29
2017-06-02T10:30:27.002Z,1015.35
2017-06-02T10:31:37.259Z,1015.31
2017-06-02T10:32:46.915Z,1015.32
2017-06-02T10:33:57.183Z,1015.28
2017-06-02T10:35:06.820Z,1015.26
2017-06-02T10:36:16.772Z,1015.24
2017-06-02T10:37:27.046Z,1015.23
2017-06-02T10:38:36.996Z,1015.19
2017-06-02T10:39:47.258Z,1015.23
2017-06-02T10:40:57.526Z,1015.17
2017-06-02T10:42:07.481Z,1015.14
2017-06-02T10:43:17.745Z,1015.15
2017-06-02T10:44:27.697Z,1015.12
2017-06-02T10:45:37.643Z,1015.13
2017-06-02T10:46:47.597Z,1015.08
2017-06-02T10:47:57.552Z,1015.11
2017-06-02T10:49:07.213Z,1015.13
2017-06-02T10:50:17.476Z,1015.1
2017-06-02T10:51:27.430Z,1015.11
2017-06-02T10:52:37.701Z,1015.08
2017-06-02T10:53:47.340Z,1015.13
2017-06-02T10:54:57.605Z,1015.1
2017-06-02T10:56:07.561Z,1015.1
2017-06-02T10:57:17.200Z,1015.08
2017-06-02T10:58:26.831Z,1015.1
2017-06-02T10:59:37.100Z,1015.07
2017-06-02T11:00:46.434Z,1015.08
2017-06-02T11:01:56.697Z,1015.09
2017-06-02T11:03:06.648Z,1015.08
2017-06-02T11:04:16.601Z,1015.07
2017-06-02T11:05:26.560Z,1015.07
2017-06-02T11:06:36.195Z,1015.09
2017-06-02T11:07:46.153Z,1015.09
2017-06-02T11:08:56.430Z,1015.07
2017-06-02T11:10:06.385Z,1015.06
2017-06-02T11:11:16.017Z,1015.07
2017-06-02T11:12:25.664Z,1015.05
2017-06-02T11:13:35.955Z,1015.03
2017-06-02T11:14:45.908Z,1014.98
2017-06-02T11:15:55.544Z,1015.08
2017-06-02T11:17:05.500Z,1015.11
2017-06-02T11:18:15.456Z,1015.09
2017-06-02T11:19:25.721Z,1015.1
2017-06-02T11:20:35.674Z,1015.17
2017-06-02T11:21:45.626Z,1015.15
2017-06-02T11:22:55.579Z,1015.13
2017-06-02T11:24:05.220Z,1015.11
2017-06-02T11:25:15.180Z,1015.11
2017-06-02T11:26:25.445Z,1015.07
2017-06-02T11:27:35.708Z,1015.08
2017-06-02T11:28:45.663Z,1015.09
2017-06-02T11:29:55.623Z,1014.99
2017-06-02T11:31:05.578Z,1015.03
2017-06-02T11:32:15.528Z,1015.06
2017-06-02T11:33:25.482Z,1015.01
2017-06-02T11:34:35.436Z,1014.95
2017-06-02T11:35:45.394Z,1014.92
2017-06-02T11:36:55.345Z,1014.92
2017-06-02T11:38:05.614Z,1014.94
2017-06-02T11:39:15.570Z,1014.91
2017-06-02T11:40:25.203Z,1014.94
2017-06-02T11:41:35.152Z,1014.93
2017-06-02T11:42:44.511Z,1014.94
2017-06-02T11:43:54.782Z,1014.94
2017-06-02T11:45:04.415Z,1014.92
2017-06-02T11:46:14.370Z,1014.91
2017-06-02T11:47:24.334Z,1014.87
2017-06-02T11:48:34.310Z,1014.87
2017-06-02T11:49:44.578Z,1014.92
2017-06-02T11:50:54.530Z,1014.87
2017-06-02T11:52:04.487Z,1014.84
2017-06-02T11:53:14.439Z,1014.86
2017-06-02T11:54:23.448Z,1014.81
2017-06-02T11:55:33.401Z,1014.86
2017-06-02T11:56:43.351Z,1014.82
2017-06-02T11:57:52.989Z,1014.84
2017-06-02T11:59:02.935Z,1014.78
2017-06-02T12:00:12.572Z,1014.82
2017-06-02T12:01:22.525Z,1014.72
2017-06-02T12:02:32.793Z,1014.81
2017-06-02T12:03:42.741Z,1014.75
2017-06-02T12:04:52.699Z,1014.76
2017-06-02T12:06:02.969Z,1014.78
2017-06-02T12:07:13.233Z,1014.73
2017-06-02T12:08:23.504Z,1014.75
2017-06-02T12:09:33.145Z,1014.72
2017-06-02T12:10:43.093Z,1014.71
2017-06-02T12:11:53.046Z,1014.71
2017-06-02T12:13:02.998Z,1014.67
2017-06-02T12:14:12.645Z,1014.67
2017-06-02T12:15:22.276Z,1014.68
2017-06-02T12:16:32.230Z,1014.67
2017-06-02T12:17:42.502Z,1014.66
2017-06-02T12:18:52.762Z,1014.6
2017-06-02T12:20:02.706Z,1014.6
2017-06-02T12:21:12.978Z,1014.61
2017-06-02T12:22:22.935Z,1014.58
2017-06-02T12:23:31.626Z,1014.53
2017-06-02T12:24:41.585Z,1014.53
2017-06-02T12:25:51.850Z,1014.54
2017-06-02T12:27:01.802Z,1014.54
2017-06-02T12:28:12.069Z,1014.53
2017-06-02T12:29:22.355Z,1014.51
2017-06-02T12:30:32.303Z,1014.53
2017-06-02T12:31:41.940Z,1014.54
2017-06-02T12:32:51.892Z,1014.5
2017-06-02T12:34:01.539Z,1014.52
2017-06-02T12:35:11.824Z,1014.49
2017-06-02T12:36:21.146Z,1014.51
2017-06-02T12:37:31.414Z,1014.49
2017-06-02T12:38:41.680Z,1014.51
2017-06-02T12:39:51.321Z,1014.5
2017-06-02T12:41:00.964Z,1014.48
2017-06-02T12:42:11.235Z,1014.51
2017-06-02T12:43:21.191Z,1014.53
2017-06-02T12:44:30.831Z,1014.58
2017-06-02T12:45:40.473Z,1014.54
2017-06-02T12:46:50.421Z,1014.53
2017-06-02T12:48:00.688Z,1014.48
2017-06-02T12:49:10.321Z,1014.51
2017-06-02T12:50:20.588Z,1014.55
2017-06-02T12:51:30.846Z,1014.5
2017-06-02T12:52:40.805Z,1014.49
2017-06-02T12:53:51.076Z,1014.48
2017-06-02T12:55:01.023Z,1014.47
2017-06-02T12:56:10.993Z,1014.52
2017-06-02T12:57:20.942Z,1014.52
2017-06-02T12:58:31.207Z,1014.52
2017-06-02T12:59:41.151Z,1014.53
2017-06-02T13:00:51.108Z,1014.55
2017-06-02T13:02:01.376Z,1014.52
2017-06-02T13:03:11.009Z,1014.5
2017-06-02T13:04:20.969Z,1014.5
2017-06-02T13:05:31.221Z,1014.51
2017-06-02T13:06:41.192Z,1014.54
2017-06-02T13:07:51.464Z,1014.5
2017-06-02T13:09:01.414Z,1014.5
2017-06-02T13:10:11.362Z,1014.45
2017-06-02T13:11:21.319Z,1014.44
2017-06-02T13:12:31.263Z,1014.39
2017-06-02T13:13:41.210Z,1014.4
2017-06-02T13:14:51.162Z,1014.4
2017-06-02T13:16:01.108Z,1014.38
2017-06-02T13:17:11.376Z,1014.39
2017-06-02T13:18:21.011Z,1014.37
2017-06-02T13:19:30.967Z,1014.33
2017-06-02T13:20:41.227Z,1014.31
2017-06-02T13:21:51.182Z,1014.33
2017-06-02T13:23:01.438Z,1014.31
2017-06-02T13:24:11.698Z,1014.29
2017-06-02T13:25:21.644Z,1014.29
2017-06-02T13:26:31.901Z,1014.31
2017-06-02T13:27:41.858Z,1014.3
2017-06-02T13:28:51.803Z,1014.31
2017-06-02T13:30:01.754Z,1014.31
2017-06-02T13:31:11.074Z,1014.26
2017-06-02T13:32:21.359Z,1014.24
2017-06-02T13:33:31.626Z,1014.25
2017-06-02T13:34:41.261Z,1014.23
2017-06-02T13:35:50.579Z,1014.26
2017-06-02T13:37:00.521Z,1014.25
2017-06-02T13:38:10.784Z,1014.25
2017-06-02T13:39:20.098Z,1014.25
2017-06-02T13:40:30.048Z,1014.25
2017-06-02T13:41:39.688Z,1014.23
2017-06-02T13:42:49.330Z,1014.24
2017-06-02T13:43:59.277Z,1014.24
2017-06-02T13:45:08.928Z,1014.24
2017-06-02T13:46:18.880Z,1014.21
2017-06-02T13:47:28.832Z,1014.24
2017-06-02T13:48:39.103Z,1014.29
2017-06-02T13:49:49.042Z,1014.21
2017-06-02T13:50:59.304Z,1014.23
2017-06-02T13:52:09.563Z,1014.21
2017-06-02T13:53:19.518Z,1014.25
2017-06-02T13:54:29.465Z,1014.21
2017-06-02T13:55:39.722Z,1014.19
2017-06-02T13:56:49.353Z,1014.2
2017-06-02T13:57:59.303Z,1014.17
2017-06-02T13:59:09.274Z,1014.15
2017-06-02T14:00:19.542Z,1014.15
2017-06-02T14:01:29.182Z,1014.17
2017-06-02T14:02:39.134Z,1014.13
2017-06-02T14:03:49.126Z,1014.12
2017-06-02T14:04:59.389Z,1014.13
2017-06-02T14:06:09.018Z,1014.08
2017-06-02T14:07:19.286Z,1014.14
2017-06-02T14:08:29.550Z,1014.06
2017-06-02T14:09:39.504Z,1014.07